sensor_id;sensor_type;location;lat;lon;timestamp;pressure;altitude;pressure_sealevel;temperature;humidity
48778;BME280;34578;0.000;0.000;2023-03-14T00:01:32;95130.28;;;16.68;55.33
48778;BME280;34578;0.000;0.000;2023-03-14T00:06:34;95145.50;;;16.65;52.19
48778;BME280;34578;0.000;0.000;2023-03-14T00:11:35;95177.50;;;16.65;51.66
48778;BME280;34578;0.000;0.000;2023-03-14T00:16:35;95188.47;;;16.65;51.13
48778;BME280;34578;0.000;0.000;2023-03-14T00:21:35;95217.22;;;16.58;51.35
48778;BME280;34578;0.000;0.000;2023-03-14T00:26:36;95225.53;;;16.63;51.07
48778;BME280;34578;0.000;0.000;2023-03-14T00:31:36;95220.47;;;16.63;50.97
48778;BME280;34578;0.000;0.000;2023-03-14T00:36:37;95202.78;;;16.63;50.50
48778;BME280;34578;0.000;0.000;2023-03-14T00:41:37;95190.16;;;16.63;50.67
48778;BME280;34578;0.000;0.000;2023-03-14T00:46:37;95200.31;;;16.62;51.31
48778;BME280;34578;0.000;0.000;2023-03-14T00:51:38;95187.63;;;16.63;50.89
48778;BME280;34578;0.000;0.000;2023-03-14T00:56:38;95176.72;;;16.63;50.58
48778;BME280;34578;0.000;0.000;2023-03-14T01:01:39;95171.63;;;16.64;55.94
48778;BME280;34578;0.000;0.000;2023-03-14T01:06:40;95142.91;;;16.70;59.66
48778;BME280;34578;0.000;0.000;2023-03-14T01:11:40;95145.34;;;16.74;59.61
48778;BME280;34578;0.000;0.000;2023-03-14T01:16:40;95144.56;;;16.69;59.65
48778;BME280;34578;0.000;0.000;2023-03-14T01:21:41;95160.69;;;16.64;52.58
48778;BME280;34578;0.000;0.000;2023-03-14T01:26:41;95185.94;;;16.65;51.67
48778;BME280;34578;0.000;0.000;2023-03-14T01:31:43;95186.78;;;16.64;51.54
48778;BME280;34578;0.000;0.000;2023-03-14T01:36:43;95177.50;;;16.65;52.04
48778;BME280;34578;0.000;0.000;2023-03-14T01:41:44;95173.34;;;16.62;50.91
48778;BME280;34578;0.000;0.000;2023-03-14T01:46:45;95153.13;;;16.62;50.81
48778;BME280;34578;0.000;0.000;2023-03-14T01:52:07;95179.22;;;16.63;51.52
48778;BME280;34578;0.000;0.000;2023-03-14T02:02:12;95151.47;;;16.61;50.76
48778;BME280;34578;0.000;0.000;2023-03-14T02:07:17;95171.66;;;16.61;50.50
48778;BME280;34578;0.000;0.000;2023-03-14T02:12:30;95155.66;;;16.62;50.72
48778;BME280;34578;0.000;0.000;2023-03-14T02:18:03;95119.53;;;16.57;51.09
48778;BME280;34578;0.000;0.000;2023-03-14T02:28:42;95113.44;;;16.69;59.72
48778;BME280;34578;0.000;0.000;2023-03-14T02:33:43;95088.94;;;16.72;59.24
48778;BME280;34578;0.000;0.000;2023-03-14T02:38:51;95077.28;;;16.65;53.42
48778;BME280;34578;0.000;0.000;2023-03-14T02:43:53;95070.59;;;16.64;51.79
48778;BME280;34578;0.000;0.000;2023-03-14T02:49:02;95038.72;;;16.57;51.59
48778;BME280;34578;0.000;0.000;2023-03-14T02:54:05;95036.13;;;16.60;51.33
48778;BME280;34578;0.000;0.000;2023-03-14T02:59:06;95041.19;;;16.59;51.56
48778;BME280;34578;0.000;0.000;2023-03-14T03:04:17;95055.53;;;16.58;51.34
48778;BME280;34578;0.000;0.000;2023-03-14T03:09:20;95034.38;;;16.62;50.90
48778;BME280;34578;0.000;0.000;2023-03-14T03:14:20;95036.91;;;16.62;51.39
48778;BME280;34578;0.000;0.000;2023-03-14T03:19:20;95010.09;;;16.55;50.99
48778;BME280;34578;0.000;0.000;2023-03-14T03:24:21;95006.66;;;16.61;50.67
48778;BME280;34578;0.000;0.000;2023-03-14T03:29:22;95010.78;;;16.63;50.67
48778;BME280;34578;0.000;0.000;2023-03-14T03:34:23;95011.66;;;16.62;50.94
48778;BME280;34578;0.000;0.000;2023-03-14T03:39:26;94994.63;;;16.70;59.39
48778;BME280;34578;0.000;0.000;2023-03-14T03:44:26;94987.88;;;16.72;59.97
48778;BME280;34578;0.000;0.000;2023-03-14T03:49:31;94973.53;;;16.73;59.44
48778;BME280;34578;0.000;0.000;2023-03-14T03:54:31;94981.22;;;16.68;53.25
48778;BME280;34578;0.000;0.000;2023-03-14T03:59:32;94970.31;;;16.66;52.08
48778;BME280;34578;0.000;0.000;2023-03-14T04:04:33;94966.13;;;16.65;52.09
48778;BME280;34578;0.000;0.000;2023-03-14T04:09:37;94956.84;;;16.66;51.63
48778;BME280;34578;0.000;0.000;2023-03-14T04:14:55;94958.56;;;16.64;51.35
48778;BME280;34578;0.000;0.000;2023-03-14T04:19:56;94954.38;;;16.64;51.46
48778;BME280;34578;0.000;0.000;2023-03-14T04:25:05;94922.38;;;16.63;51.25
48778;BME280;34578;0.000;0.000;2023-03-14T04:30:10;94928.25;;;16.64;51.16
48778;BME280;34578;0.000;0.000;2023-03-14T04:35:37;94917.31;;;16.63;51.01
48778;BME280;34578;0.000;0.000;2023-03-14T04:40:43;94903.88;;;16.61;51.23
48778;BME280;34578;0.000;0.000;2023-03-14T04:45:44;94907.22;;;16.63;51.46
48778;BME280;34578;0.000;0.000;2023-03-14T04:50:46;94910.50;;;16.67;51.13
48778;BME280;34578;0.000;0.000;2023-03-14T04:55:52;94889.38;;;16.71;59.01
48778;BME280;34578;0.000;0.000;2023-03-14T05:00:54;94871.72;;;16.67;59.27
48778;BME280;34578;0.000;0.000;2023-03-14T05:06:06;94864.97;;;16.70;58.76
48778;BME280;34578;0.000;0.000;2023-03-14T05:11:27;94857.31;;;16.73;57.82
48778;BME280;34578;0.000;0.000;2023-03-14T05:16:54;94846.44;;;16.69;55.95
48778;BME280;34578;0.000;0.000;2023-03-14T05:22:04;94865.75;;;16.73;53.85
48778;BME280;34578;0.000;0.000;2023-03-14T05:27:18;94852.19;;;16.75;53.10
48778;BME280;34578;0.000;0.000;2023-03-14T05:32:41;94879.19;;;16.73;52.17
48778;BME280;34578;0.000;0.000;2023-03-14T05:37:54;94880.03;;;16.74;52.24
48778;BME280;34578;0.000;0.000;2023-03-14T05:43:13;94864.78;;;16.77;51.76
48778;BME280;34578;0.000;0.000;2023-03-14T05:48:14;94861.47;;;16.75;51.67
48778;BME280;34578;0.000;0.000;2023-03-14T05:53:31;94872.41;;;16.75;51.27
48778;BME280;34578;0.000;0.000;2023-03-14T05:58:49;94860.59;;;16.76;51.49
48778;BME280;34578;0.000;0.000;2023-03-14T06:03:59;94864.88;;;16.74;50.74
48778;BME280;34578;0.000;0.000;2023-03-14T06:09:00;94840.50;;;16.72;52.70
48778;BME280;34578;0.000;0.000;2023-03-14T06:14:02;94836.91;;;16.80;58.54
48778;BME280;34578;0.000;0.000;2023-03-14T06:19:03;94816.66;;;16.81;59.29
48778;BME280;34578;0.000;0.000;2023-03-14T06:24:04;94821.94;;;16.73;54.24
48778;BME280;34578;0.000;0.000;2023-03-14T06:29:09;94843.13;;;16.67;52.64
48778;BME280;34578;0.000;0.000;2023-03-14T06:34:09;94843.31;;;16.60;53.20
48778;BME280;34578;0.000;0.000;2023-03-14T06:39:10;94831.41;;;16.63;50.92
48778;BME280;34578;0.000;0.000;2023-03-14T06:44:14;94830.50;;;16.67;51.22
48778;BME280;34578;0.000;0.000;2023-03-14T06:49:15;94816.22;;;16.66;50.96
48778;BME280;34578;0.000;0.000;2023-03-14T06:54:16;94811.97;;;16.67;50.86
48778;BME280;34578;0.000;0.000;2023-03-14T06:59:17;94831.38;;;16.66;50.95
48778;BME280;34578;0.000;0.000;2023-03-14T07:04:20;94842.34;;;16.65;50.95
48778;BME280;34578;0.000;0.000;2023-03-14T07:09:22;94831.72;;;16.51;50.49
48778;BME280;34578;0.000;0.000;2023-03-14T07:14:29;94832.25;;;16.64;50.73
48778;BME280;34578;0.000;0.000;2023-03-14T07:19:30;94846.56;;;16.63;50.43
48778;BME280;34578;0.000;0.000;2023-03-14T07:24:30;94857.53;;;16.62;50.44
48778;BME280;34578;0.000;0.000;2023-03-14T07:29:30;94847.31;;;16.68;57.18
48778;BME280;34578;0.000;0.000;2023-03-14T07:34:32;94858.22;;;16.70;57.63
48778;BME280;34578;0.000;0.000;2023-03-14T07:39:33;94866.66;;;16.69;57.56
48778;BME280;34578;0.000;0.000;2023-03-14T07:44:39;94878.50;;;16.67;56.23
48778;BME280;34578;0.000;0.000;2023-03-14T07:49:39;94873.44;;;16.67;56.87
48778;BME280;34578;0.000;0.000;2023-03-14T07:54:42;94886.06;;;16.69;57.12
48778;BME280;34578;0.000;0.000;2023-03-14T07:59:42;94883.56;;;16.67;54.86
48778;BME280;34578;0.000;0.000;2023-03-14T08:04:42;94895.31;;;16.68;56.49
48778;BME280;34578;0.000;0.000;2023-03-14T08:09:43;94882.69;;;16.68;56.68
48778;BME280;34578;0.000;0.000;2023-03-14T08:14:43;94912.13;;;16.69;56.79
48778;BME280;34578;0.000;0.000;2023-03-14T08:19:44;94904.56;;;16.67;54.75
48778;BME280;34578;0.000;0.000;2023-03-14T08:24:44;94918.84;;;16.70;57.11
48778;BME280;34578;0.000;0.000;2023-03-14T08:29:44;94939.13;;;16.67;52.93
48778;BME280;34578;0.000;0.000;2023-03-14T08:34:45;94944.97;;;16.69;57.20
48778;BME280;34578;0.000;0.000;2023-03-14T08:39:45;94934.94;;;16.66;52.32
48778;BME280;34578;0.000;0.000;2023-03-14T08:44:46;94953.41;;;16.70;56.96
48778;BME280;34578;0.000;0.000;2023-03-14T08:49:46;94961.78;;;16.70;57.25
48778;BME280;34578;0.000;0.000;2023-03-14T08:54:47;94964.31;;;16.70;57.47
48778;BME280;34578;0.000;0.000;2023-03-14T08:59:47;94966.84;;;16.70;55.98
48778;BME280;34578;0.000;0.000;2023-03-14T09:04:47;94962.69;;;16.67;55.71
48778;BME280;34578;0.000;0.000;2023-03-14T09:09:49;94953.44;;;16.67;52.10
48778;BME280;34578;0.000;0.000;2023-03-14T09:14:49;94952.63;;;16.66;51.71
48778;BME280;34578;0.000;0.000;2023-03-14T09:19:50;94959.34;;;16.67;51.37
48778;BME280;34578;0.000;0.000;2023-03-14T09:24:50;94953.44;;;16.67;51.27
48778;BME280;34578;0.000;0.000;2023-03-14T09:29:51;94938.44;;;16.61;51.48
48778;BME280;34578;0.000;0.000;2023-03-14T09:34:51;94951.78;;;16.67;50.98
48778;BME280;34578;0.000;0.000;2023-03-14T09:39:52;94954.28;;;16.67;52.54
48778;BME280;34578;0.000;0.000;2023-03-14T09:45:04;94964.47;;;16.64;50.65
48778;BME280;34578;0.000;0.000;2023-03-14T09:50:13;94957.72;;;16.63;50.99
48778;BME280;34578;0.000;0.000;2023-03-14T09:55:15;94973.72;;;16.65;50.87
48778;BME280;34578;0.000;0.000;2023-03-14T10:00:19;94981.22;;;16.68;56.39
48778;BME280;34578;0.000;0.000;2023-03-14T10:05:22;94989.59;;;16.70;56.85
48778;BME280;34578;0.000;0.000;2023-03-14T10:10:25;94986.19;;;16.71;56.86
48778;BME280;34578;0.000;0.000;2023-03-14T10:15:32;95003.94;;;16.70;56.03
48778;BME280;34578;0.000;0.000;2023-03-14T10:20:38;95002.38;;;16.64;54.11
48778;BME280;34578;0.000;0.000;2023-03-14T10:25:45;94997.31;;;16.64;51.23
48778;BME280;34578;0.000;0.000;2023-03-14T10:30:45;94999.84;;;16.64;52.36
48778;BME280;34578;0.000;0.000;2023-03-14T10:35:51;95010.78;;;16.63;52.18
48778;BME280;34578;0.000;0.000;2023-03-14T10:40:53;95027.63;;;16.64;52.08
48778;BME280;34578;0.000;0.000;2023-03-14T10:45:57;95025.09;;;16.64;51.24
48778;BME280;34578;0.000;0.000;2023-03-14T10:51:10;95032.69;;;16.64;50.86
48778;BME280;34578;0.000;0.000;2023-03-14T10:56:13;95035.22;;;16.64;52.15
48778;BME280;34578;0.000;0.000;2023-03-14T11:11:36;95062.13;;;16.65;50.09
48778;BME280;34578;0.000;0.000;2023-03-14T11:16:56;95062.09;;;16.67;56.73
48778;BME280;34578;0.000;0.000;2023-03-14T11:22:44;95077.16;;;16.71;57.07
48778;BME280;34578;0.000;0.000;2023-03-14T11:27:55;95105.00;;;16.70;56.85
48778;BME280;34578;0.000;0.000;2023-03-14T11:33:04;95121.84;;;16.69;56.04
48778;BME280;34578;0.000;0.000;2023-03-14T11:38:19;95123.50;;;16.70;54.85
48778;BME280;34578;0.000;0.000;2023-03-14T11:43:35;95165.59;;;16.71;56.60
48778;BME280;34578;0.000;0.000;2023-03-14T11:54:12;95341.66;;;16.69;55.13
48778;BME280;34578;0.000;0.000;2023-03-14T11:59:18;95368.59;;;16.70;56.80
48778;BME280;34578;0.000;0.000;2023-03-14T12:09:35;95393.00;;;16.73;56.49
48778;BME280;34578;0.000;0.000;2023-03-14T12:14:37;95419.94;;;16.73;57.21
48778;BME280;34578;0.000;0.000;2023-03-14T12:19:44;95442.72;;;16.72;57.37
48778;BME280;34578;0.000;0.000;2023-03-14T12:25:26;95446.06;;;16.71;57.47
48778;BME280;34578;0.000;0.000;2023-03-14T12:30:29;95475.56;;;16.71;57.10
48778;BME280;34578;0.000;0.000;2023-03-14T12:35:40;95483.16;;;16.72;57.72
48778;BME280;34578;0.000;0.000;2023-03-14T12:51:19;95484.81;;;16.72;56.91
48778;BME280;34578;0.000;0.000;2023-03-14T13:01:25;95484.84;;;16.70;55.29
48778;BME280;34578;0.000;0.000;2023-03-14T13:06:50;95490.75;;;16.69;53.40
48778;BME280;34578;0.000;0.000;2023-03-14T13:12:10;95515.16;;;16.72;52.70
48778;BME280;34578;0.000;0.000;2023-03-14T13:17:12;95515.13;;;16.73;51.68
48778;BME280;34578;0.000;0.000;2023-03-14T13:22:21;95548.00;;;16.73;57.46
48778;BME280;34578;0.000;0.000;2023-03-14T13:27:22;95538.75;;;16.69;52.96
48778;BME280;34578;0.000;0.000;2023-03-14T13:32:28;95537.03;;;16.71;53.06
48778;BME280;34578;0.000;0.000;2023-03-14T13:37:29;95543.78;;;16.72;53.18
48778;BME280;34578;0.000;0.000;2023-03-14T13:42:29;95558.13;;;16.70;53.40
48778;BME280;34578;0.000;0.000;2023-03-14T13:47:30;95580.84;;;16.72;55.67
48778;BME280;34578;0.000;0.000;2023-03-14T13:52:34;95585.91;;;16.70;58.13
48778;BME280;34578;0.000;0.000;2023-03-14T13:57:46;95598.50;;;16.74;59.03
48778;BME280;34578;0.000;0.000;2023-03-14T14:02:48;95601.91;;;16.72;58.11
48778;BME280;34578;0.000;0.000;2023-03-14T14:07:51;95609.50;;;16.69;57.25
48778;BME280;34578;0.000;0.000;2023-03-14T14:12:59;95616.22;;;16.73;56.74
48778;BME280;34578;0.000;0.000;2023-03-14T14:18:06;95626.31;;;16.73;56.69
48778;BME280;34578;0.000;0.000;2023-03-14T14:23:13;95622.94;;;16.74;53.88
48778;BME280;34578;0.000;0.000;2023-03-14T14:28:35;95638.97;;;16.73;55.73
48778;BME280;34578;0.000;0.000;2023-03-14T14:33:52;95654.09;;;16.74;53.86
48778;BME280;34578;0.000;0.000;2023-03-14T14:39:03;95644.06;;;16.69;56.37
48778;BME280;34578;0.000;0.000;2023-03-14T14:44:05;95668.44;;;16.74;55.90
48778;BME280;34578;0.000;0.000;2023-03-14T14:49:09;95672.63;;;16.73;56.05
48778;BME280;34578;0.000;0.000;2023-03-14T14:54:33;95654.97;;;16.72;55.38
48778;BME280;34578;0.000;0.000;2023-03-14T14:59:44;95663.47;;;16.62;54.83
48778;BME280;34578;0.000;0.000;2023-03-14T15:04:46;95662.56;;;16.69;52.91
48778;BME280;34578;0.000;0.000;2023-03-14T15:09:47;95660.00;;;16.75;57.81
48778;BME280;34578;0.000;0.000;2023-03-14T15:14:47;95657.38;;;16.82;58.25
48778;BME280;34578;0.000;0.000;2023-03-14T15:19:48;95638.00;;;16.81;57.58
48778;BME280;34578;0.000;0.000;2023-03-14T15:24:48;95630.44;;;16.81;56.46
48778;BME280;34578;0.000;0.000;2023-03-14T15:29:49;95624.56;;;16.79;54.20
48778;BME280;34578;0.000;0.000;2023-03-14T15:34:49;95628.75;;;16.79;53.43
48778;BME280;34578;0.000;0.000;2023-03-14T15:39:49;95622.84;;;16.80;57.25
48778;BME280;34578;0.000;0.000;2023-03-14T15:44:50;95613.66;;;16.77;53.42
48778;BME280;34578;0.000;0.000;2023-03-14T15:49:50;95619.56;;;16.75;55.35
48778;BME280;34578;0.000;0.000;2023-03-14T15:54:51;95626.28;;;16.76;57.51
48778;BME280;34578;0.000;0.000;2023-03-14T15:59:52;95627.97;;;16.77;57.72
48778;BME280;34578;0.000;0.000;2023-03-14T16:04:53;95642.25;;;16.78;57.57
48778;BME280;34578;0.000;0.000;2023-03-14T16:09:54;95647.34;;;16.77;56.90
48778;BME280;34578;0.000;0.000;2023-03-14T16:14:54;95666.72;;;16.76;57.30
48778;BME280;34578;0.000;0.000;2023-03-14T16:19:54;95665.88;;;16.75;57.14
48778;BME280;34578;0.000;0.000;2023-03-14T16:24:55;95668.41;;;16.75;57.71
48778;BME280;34578;0.000;0.000;2023-03-14T16:29:55;95665.91;;;16.73;57.80
48778;BME280;34578;0.000;0.000;2023-03-14T16:34:55;95685.22;;;16.78;57.73
48778;BME280;34578;0.000;0.000;2023-03-14T16:39:56;95712.22;;;16.77;57.52
48778;BME280;34578;0.000;0.000;2023-03-14T16:44:56;95722.31;;;16.76;57.68
48778;BME280;34578;0.000;0.000;2023-03-14T16:49:57;95720.66;;;16.77;56.89
48778;BME280;34578;0.000;0.000;2023-03-14T16:54:57;95749.28;;;16.77;57.64
48778;BME280;34578;0.000;0.000;2023-03-14T16:59:57;95761.09;;;16.75;56.49
48778;BME280;34578;0.000;0.000;2023-03-14T17:04:58;95777.06;;;16.77;56.68
48778;BME280;34578;0.000;0.000;2023-03-14T17:09:58;95792.22;;;16.77;54.88
48778;BME280;34578;0.000;0.000;2023-03-14T17:14:59;95785.53;;;16.73;57.55
48778;BME280;34578;0.000;0.000;2023-03-14T17:19:59;95799.84;;;16.71;57.00
48778;BME280;34578;0.000;0.000;2023-03-14T17:25:00;95807.41;;;16.77;58.95
48778;BME280;34578;0.000;0.000;2023-03-14T17:30:02;95821.75;;;16.75;58.30
48778;BME280;34578;0.000;0.000;2023-03-14T17:35:02;95833.53;;;16.76;58.69
48778;BME280;34578;0.000;0.000;2023-03-14T17:40:03;95841.09;;;16.76;58.77
48778;BME280;34578;0.000;0.000;2023-03-14T17:45:05;95841.09;;;16.76;59.09
48778;BME280;34578;0.000;0.000;2023-03-14T17:50:06;95847.81;;;16.83;57.99
48778;BME280;34578;0.000;0.000;2023-03-14T17:55:07;95872.19;;;16.90;52.75
48778;BME280;34578;0.000;0.000;2023-03-14T18:00:09;95864.63;;;16.85;51.91
48778;BME280;34578;0.000;0.000;2023-03-14T18:05:11;95877.25;;;16.90;53.80
48778;BME280;34578;0.000;0.000;2023-03-14T18:10:11;95898.28;;;16.90;51.22
48778;BME280;34578;0.000;0.000;2023-03-14T18:15:13;95896.63;;;16.88;50.96
48778;BME280;34578;0.000;0.000;2023-03-14T18:20:14;95911.78;;;16.89;50.73
48778;BME280;34578;0.000;0.000;2023-03-14T18:25:14;95908.41;;;16.90;50.67
48778;BME280;34578;0.000;0.000;2023-03-14T18:30:15;95912.69;;;16.81;51.55
48778;BME280;34578;0.000;0.000;2023-03-14T18:35:16;95916.06;;;16.83;50.43
48778;BME280;34578;0.000;0.000;2023-03-14T18:40:16;95913.50;;;16.89;50.42
48778;BME280;34578;0.000;0.000;2023-03-14T18:45:18;95924.44;;;16.88;52.96
48778;BME280;34578;0.000;0.000;2023-03-14T18:50:19;95928.63;;;16.90;51.43
48778;BME280;34578;0.000;0.000;2023-03-14T18:55:19;95931.16;;;16.92;50.49
48778;BME280;34578;0.000;0.000;2023-03-14T19:00:20;95936.19;;;16.95;56.56
48778;BME280;34578;0.000;0.000;2023-03-14T19:05:20;95931.13;;;16.98;57.13
48778;BME280;34578;0.000;0.000;2023-03-14T19:10:21;95937.00;;;17.00;55.83
48778;BME280;34578;0.000;0.000;2023-03-14T19:15:21;95937.84;;;16.96;51.68
48778;BME280;34578;0.000;0.000;2023-03-14T19:20:21;95937.88;;;16.93;50.78
48778;BME280;34578;0.000;0.000;2023-03-14T19:25:23;95940.41;;;16.91;50.67
48778;BME280;34578;0.000;0.000;2023-03-14T19:30:24;95933.69;;;16.90;51.06
48778;BME280;34578;0.000;0.000;2023-03-14T19:35:24;95942.13;;;16.89;51.11
48778;BME280;34578;0.000;0.000;2023-03-14T19:40:24;95938.75;;;16.90;51.34
48778;BME280;34578;0.000;0.000;2023-03-14T19:45:25;95943.78;;;16.90;51.37
48778;BME280;34578;0.000;0.000;2023-03-14T19:50:32;95944.66;;;16.91;51.07
48778;BME280;34578;0.000;0.000;2023-03-14T19:55:33;95947.16;;;16.95;50.67
48778;BME280;34578;0.000;0.000;2023-03-14T20:00:33;95957.25;;;16.92;50.18
48778;BME280;34578;0.000;0.000;2023-03-14T20:05:37;95952.22;;;16.95;50.48
48778;BME280;34578;0.000;0.000;2023-03-14T20:10:38;95960.63;;;16.96;50.71
48778;BME280;34578;0.000;0.000;2023-03-14T20:15:39;95958.09;;;16.99;54.29
48778;BME280;34578;0.000;0.000;2023-03-14T20:20:40;95953.00;;;17.02;56.71
48778;BME280;34578;0.000;0.000;2023-03-14T20:25:41;95974.91;;;17.06;56.51
48778;BME280;34578;0.000;0.000;2023-03-14T20:30:42;95990.09;;;17.00;52.59
48778;BME280;34578;0.000;0.000;2023-03-14T20:35:43;95999.41;;;16.98;52.70
48778;BME280;34578;0.000;0.000;2023-03-14T20:40:46;96001.91;;;16.98;51.76
48778;BME280;34578;0.000;0.000;2023-03-14T20:45:54;96012.84;;;16.98;51.79
48778;BME280;34578;0.000;0.000;2023-03-14T20:50:55;96016.25;;;16.97;51.76
48778;BME280;34578;0.000;0.000;2023-03-14T20:55:56;96012.84;;;16.97;52.17
48778;BME280;34578;0.000;0.000;2023-03-14T21:00:57;96018.75;;;16.96;52.09
48778;BME280;34578;0.000;0.000;2023-03-14T21:05:57;96018.78;;;16.94;51.73
48778;BME280;34578;0.000;0.000;2023-03-14T21:10:57;96017.97;;;16.91;52.67
48778;BME280;34578;0.000;0.000;2023-03-14T21:15:59;96033.13;;;16.95;51.88
48778;BME280;34578;0.000;0.000;2023-03-14T21:21:00;96030.59;;;16.95;52.06
48778;BME280;34578;0.000;0.000;2023-03-14T21:26:00;96040.66;;;16.97;52.38
48778;BME280;34578;0.000;0.000;2023-03-14T21:31:08;96034.78;;;16.98;52.92
48778;BME280;34578;0.000;0.000;2023-03-14T21:36:12;96055.81;;;17.04;56.35
48778;BME280;34578;0.000;0.000;2023-03-14T21:41:12;96091.22;;;17.06;55.96
48778;BME280;34578;0.000;0.000;2023-03-14T21:46:13;96128.31;;;17.01;53.93
48778;BME280;34578;0.000;0.000;2023-03-14T21:51:13;96115.69;;;16.96;53.46
48778;BME280;34578;0.000;0.000;2023-03-14T21:56:14;96122.47;;;16.94;52.66
48778;BME280;34578;0.000;0.000;2023-03-14T22:01:14;96119.06;;;16.94;51.76
48778;BME280;34578;0.000;0.000;2023-03-14T22:06:14;96131.69;;;16.97;51.51
48778;BME280;34578;0.000;0.000;2023-03-14T22:11:15;96124.97;;;16.94;51.21
48778;BME280;34578;0.000;0.000;2023-03-14T22:16:15;96146.16;;;16.52;53.84
48778;BME280;34578;0.000;0.000;2023-03-14T22:21:16;96141.03;;;16.80;52.23
48778;BME280;34578;0.000;0.000;2023-03-14T22:26:16;96145.22;;;16.87;52.23
48778;BME280;34578;0.000;0.000;2023-03-14T22:31:17;96166.31;;;16.89;51.35
48778;BME280;34578;0.000;0.000;2023-03-14T22:36:17;96185.69;;;16.90;51.34
48778;BME280;34578;0.000;0.000;2023-03-14T22:41:17;96209.28;;;16.89;51.32
48778;BME280;34578;0.000;0.000;2023-03-14T22:46:18;96222.75;;;16.91;51.08
48778;BME280;34578;0.000;0.000;2023-03-14T22:51:18;96227.78;;;16.94;56.95
48778;BME280;34578;0.000;0.000;2023-03-14T22:56:19;96227.78;;;16.94;57.75
48778;BME280;34578;0.000;0.000;2023-03-14T23:01:19;96253.09;;;16.94;57.04
48778;BME280;34578;0.000;0.000;2023-03-14T23:06:20;96258.13;;;16.94;52.49
48778;BME280;34578;0.000;0.000;2023-03-14T23:11:20;96264.03;;;16.91;51.61
48778;BME280;34578;0.000;0.000;2023-03-14T23:16:21;96278.34;;;16.88;51.50
48778;BME280;34578;0.000;0.000;2023-03-14T23:21:24;96288.47;;;16.88;51.43
48778;BME280;34578;0.000;0.000;2023-03-14T23:26:25;96297.78;;;16.89;51.20
48778;BME280;34578;0.000;0.000;2023-03-14T23:31:26;96280.06;;;16.77;51.24
48778;BME280;34578;0.000;0.000;2023-03-14T23:36:26;96291.88;;;16.79;50.98
48778;BME280;34578;0.000;0.000;2023-03-14T23:41:27;96313.75;;;16.88;50.68
48778;BME280;34578;0.000;0.000;2023-03-14T23:46:28;96318.84;;;16.86;50.69
48778;BME280;34578;0.000;0.000;2023-03-14T23:51:29;96326.41;;;16.86;50.58
48778;BME280;34578;0.000;0.000;2023-03-14T23:56:29;96330.63;;;16.86;50.51
